createdAt,value
2019-01-25T00:02:25.190Z,28.10
2019-01-25T00:04:54.232Z,28.73
2019-01-25T00:07:23.201Z,29.83
2019-01-25T00:09:58.496Z,27.30
2019-01-25T00:12:22.985Z,28.40
2019-01-25T00:14:52.006Z,25.87
2019-01-25T00:17:21.117Z,27.10
2019-01-25T00:19:50.291Z,27.30
2019-01-25T00:22:19.333Z,27.33
2019-01-25T00:24:48.343Z,27.93
2019-01-25T00:27:18.838Z,27.67
2019-01-25T00:29:47.843Z,27.47
2019-01-25T00:32:19.327Z,27.10
2019-01-25T00:34:48.327Z,26.47
2019-01-25T00:37:17.305Z,26.47
2019-01-25T00:39:46.398Z,25.23
2019-01-25T00:42:15.376Z,27.20
2019-01-25T00:44:44.373Z,25.57
2019-01-25T00:47:13.350Z,26.90
2019-01-25T00:49:42.471Z,27.37
2019-01-25T00:52:11.549Z,28.13
2019-01-25T00:54:40.631Z,27.97
2019-01-25T00:57:09.621Z,27.10
2019-01-25T00:59:38.687Z,28.23
2019-01-25T01:02:07.680Z,26.30
2019-01-25T01:04:36.749Z,27.33
2019-01-25T01:07:05.843Z,28.83
2019-01-25T01:09:34.864Z,27.27
2019-01-25T01:12:03.981Z,25.90
2019-01-25T01:14:32.987Z,27.37
2019-01-25T01:17:02.060Z,25.57
2019-01-25T01:19:31.149Z,26.80
2019-01-25T01:22:00.224Z,27.43
2019-01-25T01:24:29.330Z,25.77
2019-01-25T01:26:58.325Z,27.00
2019-01-25T01:29:27.300Z,27.00
2019-01-25T01:31:57.547Z,28.40
2019-01-25T01:34:26.611Z,25.50
2019-01-25T01:36:57.359Z,25.40
2019-01-25T01:39:26.361Z,26.10
2019-01-25T01:41:55.473Z,25.40
2019-01-25T01:44:24.451Z,25.40
2019-01-25T01:46:53.438Z,24.70
2019-01-25T01:49:22.555Z,25.77
2019-01-25T01:51:51.635Z,26.20
2019-01-25T01:54:20.614Z,27.43
2019-01-25T01:56:49.608Z,25.50
2019-01-25T01:59:18.592Z,26.03
2019-01-25T02:01:47.586Z,25.07
2019-01-25T02:04:16.576Z,25.03
2019-01-25T02:06:45.754Z,26.47
2019-01-25T02:09:14.742Z,24.77
2019-01-25T02:11:43.825Z,24.73
2019-01-25T02:14:12.825Z,25.70
2019-01-25T02:16:41.906Z,25.43
2019-01-25T02:19:10.899Z,25.53
2019-01-25T02:21:39.924Z,26.03
2019-01-25T02:24:08.958Z,25.73
2019-01-25T02:26:38.028Z,27.77
2019-01-25T02:29:07.024Z,26.13
2019-01-25T02:31:36.039Z,25.27
2019-01-25T02:34:05.027Z,25.83
2019-01-25T02:36:34.115Z,26.77
2019-01-25T02:39:04.257Z,27.73
2019-01-25T02:41:35.754Z,27.50
2019-01-25T02:44:05.239Z,25.90
2019-01-25T02:46:34.401Z,28.17
2019-01-25T02:49:06.235Z,24.33
2019-01-25T02:51:37.474Z,26.17
2019-01-25T02:54:06.512Z,25.17
2019-01-25T02:56:35.672Z,26.33
2019-01-25T02:59:04.728Z,24.50
2019-01-25T03:01:33.762Z,27.13
2019-01-25T03:04:20.794Z,27.40
2019-01-25T03:07:01.348Z,25.67
2019-01-25T03:09:40.096Z,26.03
2019-01-25T05:59:49.448Z,33.57
2019-01-25T06:02:30.082Z,32.67
2019-01-25T06:05:10.398Z,32.27
2019-01-25T06:07:50.741Z,32.03
2019-01-25T06:10:31.201Z,33.03
2019-01-25T06:13:11.755Z,32.53
2019-01-25T06:15:52.128Z,32.53
2019-01-25T06:18:32.744Z,31.77
2019-01-25T06:21:13.408Z,33.37
2019-01-25T06:23:53.964Z,32.50
2019-01-25T06:26:34.600Z,30.63
2019-01-25T06:29:15.190Z,31.87
2019-01-25T06:31:55.646Z,32.53
2019-01-25T06:34:36.220Z,33.90
2019-01-25T06:37:16.619Z,32.83
2019-01-25T06:39:57.091Z,33.63
2019-01-25T06:42:37.429Z,32.33
2019-01-25T06:45:17.912Z,31.43
2019-01-25T06:47:58.531Z,31.90
2019-01-25T06:50:39.197Z,31.23
2019-01-25T06:53:19.853Z,33.13
2019-01-25T06:56:00.244Z,31.03
2019-01-25T06:58:58.069Z,31.00
2019-01-25T09:55:27.600Z,32.20
2019-01-25T09:58:06.315Z,31.77
2019-01-25T12:50:51.335Z,25.07
2019-01-25T12:53:31.695Z,25.40
2019-01-25T12:56:12.442Z,26.53
2019-01-25T12:58:53.044Z,26.47
2019-01-25T13:01:34.984Z,26.03
2019-01-25T13:04:15.888Z,25.60
2019-01-25T13:06:56.422Z,23.93
2019-01-25T13:09:36.805Z,21.87
2019-01-25T13:12:17.483Z,21.17
2019-01-25T13:14:58.182Z,20.87
2019-01-25T13:17:38.901Z,18.73
2019-01-25T13:20:19.325Z,17.20
2019-01-25T13:22:58.040Z,17.23
2019-01-25T15:54:57.131Z,26.10
2019-01-25T18:03:30.714Z,23.27
2019-01-25T18:59:53.240Z,28.33
2019-01-25T19:02:33.849Z,24.80
2019-01-25T19:05:14.465Z,21.40
2019-01-25T19:07:55.082Z,20.17
2019-01-25T19:10:35.805Z,23.57
2019-01-25T19:13:16.493Z,21.63
2019-01-25T19:15:57.167Z,21.40
2019-01-25T19:18:37.948Z,22.43
2019-01-25T19:21:16.642Z,21.03
